RYR4SN LLBG-LGRP
Flight info
| Callsign | RYR4SN |
|---|---|
| Flight time | N/A |
| Altitude | 32000 |
| Route | SUVAS N128 OTHON/N0405F240 N128 FOXLI |
| Aircraft | B738/M-SDE2E3FGHIRWXY/LB1 |
Departure
| Time | 2026-05-07 10:33 |
|---|---|
| Airport | Ben Gurion International Airport (LLBG) |
Arrival
| Time | N/A |
|---|---|
| Airport | Rhodes International Airport "Diagoras" (LGRP) |
| Time | Latitude | Longitude | Altitude | Speed | Heading |
|---|---|---|---|---|---|
| 2026-05-07 10:17 | 32.00305 | 34.87925 | 143 ft | 0 kts | 101° |
| 2026-05-07 10:25 | 32.00306 | 34.87924 | 143 ft | 1 kts | 101° |
| 2026-05-07 10:25 | 32.00308 | 34.87908 | 143 ft | 3 kts | 105° |
| 2026-05-07 10:25 | 32.00314 | 34.87885 | 143 ft | 3 kts | 107° |
| 2026-05-07 10:26 | 32.00320 | 34.87863 | 143 ft | 3 kts | 103° |
| 2026-05-07 10:26 | 32.00322 | 34.87841 | 143 ft | 3 kts | 75° |
| 2026-05-07 10:26 | 32.00313 | 34.87822 | 143 ft | 3 kts | 40° |
| 2026-05-07 10:26 | 32.00297 | 34.87809 | 143 ft | 2 kts | 32° |
| 2026-05-07 10:27 | 32.00284 | 34.87799 | 143 ft | 3 kts | 31° |
| 2026-05-07 10:27 | 32.00268 | 34.87788 | 143 ft | 2 kts | 31° |
| 2026-05-07 10:27 | 32.00265 | 34.87786 | 143 ft | 0 kts | 31° |
| 2026-05-07 10:29 | 32.00299 | 34.87810 | 143 ft | 12 kts | 31° |
| 2026-05-07 10:29 | 32.00408 | 34.87887 | 143 ft | 24 kts | 31° |
| 2026-05-07 10:29 | 32.00540 | 34.87944 | 143 ft | 14 kts | 329° |
| 2026-05-07 10:30 | 32.00643 | 34.87956 | 143 ft | 6 kts | 32° |
| 2026-05-07 10:30 | 32.00726 | 34.88016 | 143 ft | 21 kts | 31° |
| 2026-05-07 10:30 | 32.00852 | 34.88108 | 143 ft | 21 kts | 31° |
| 2026-05-07 10:30 | 32.00975 | 34.88195 | 143 ft | 20 kts | 32° |
| 2026-05-07 10:31 | 32.01101 | 34.88287 | 143 ft | 23 kts | 31° |
| 2026-05-07 10:31 | 32.01235 | 34.88384 | 143 ft | 22 kts | 34° |
| 2026-05-07 10:31 | 32.01360 | 34.88514 | 143 ft | 29 kts | 49° |
| 2026-05-07 10:31 | 32.01475 | 34.88747 | 143 ft | 33 kts | 68° |
| 2026-05-07 10:32 | 32.01522 | 34.89003 | 143 ft | 31 kts | 81° |
| 2026-05-07 10:32 | 32.01608 | 34.89159 | 143 ft | 22 kts | 347° |
| 2026-05-07 10:32 | 32.01733 | 34.89116 | 143 ft | 12 kts | 303° |
| 2026-05-07 10:32 | 32.01734 | 34.89021 | 143 ft | 12 kts | 259° |
| 2026-05-07 10:33 | 32.01713 | 34.88882 | 143 ft | 32 kts | 260° |
| 2026-05-07 10:33 | 32.01623 | 34.88298 | 143 ft | 110 kts | 262° |
| 2026-05-07 10:33 | 32.01454 | 34.87200 | 194 ft | 168 kts | 260° |
| 2026-05-07 10:33 | 32.01202 | 34.85742 | 968 ft | 176 kts | 260° |
| 2026-05-07 10:34 | 32.00917 | 34.84331 | 1921 ft | 181 kts | 260° |
| 2026-05-07 10:34 | 32.00617 | 34.82843 | 2573 ft | 196 kts | 259° |
| 2026-05-07 10:34 | 32.00288 | 34.81221 | 3134 ft | 211 kts | 258° |
| 2026-05-07 10:34 | 31.99928 | 34.79453 | 3566 ft | 231 kts | 258° |
| 2026-05-07 10:35 | 31.99621 | 34.77595 | 4375 ft | 234 kts | 268° |
| 2026-05-07 10:35 | 31.99718 | 34.75620 | 4923 ft | 251 kts | 283° |
| 2026-05-07 10:35 | 32.00177 | 34.73570 | 5496 ft | 267 kts | 286° |
| 2026-05-07 10:35 | 32.00667 | 34.71418 | 6263 ft | 275 kts | 286° |
| 2026-05-07 10:36 | 32.01165 | 34.69225 | 7113 ft | 279 kts | 286° |
| 2026-05-07 10:36 | 32.01672 | 34.66996 | 7969 ft | 283 kts | 285° |
| 2026-05-07 10:36 | 32.02184 | 34.64743 | 8804 ft | 287 kts | 285° |
| 2026-05-07 10:36 | 32.02701 | 34.62461 | 9639 ft | 290 kts | 285° |
| 2026-05-07 10:37 | 32.03220 | 34.60163 | 10506 ft | 291 kts | 285° |
| 2026-05-07 10:37 | 32.03746 | 34.57839 | 11233 ft | 298 kts | 285° |
| 2026-05-07 10:37 | 32.04292 | 34.55424 | 11659 ft | 315 kts | 285° |
| 2026-05-07 10:37 | 32.04872 | 34.52850 | 11982 ft | 333 kts | 285° |
| 2026-05-07 10:38 | 32.05478 | 34.50158 | 12436 ft | 346 kts | 285° |
| 2026-05-07 10:38 | 32.06099 | 34.47401 | 13123 ft | 350 kts | 285° |
| 2026-05-07 10:38 | 32.06724 | 34.44618 | 13871 ft | 352 kts | 285° |
| 2026-05-07 10:38 | 32.07347 | 34.41848 | 14585 ft | 355 kts | 285° |
| 2026-05-07 10:39 | 32.07980 | 34.39023 | 15290 ft | 358 kts | 285° |
| 2026-05-07 10:39 | 32.08622 | 34.36176 | 15985 ft | 361 kts | 285° |
| 2026-05-07 10:39 | 32.09298 | 34.33317 | 16659 ft | 363 kts | 286° |
| 2026-05-07 10:39 | 32.09967 | 34.30435 | 17323 ft | 366 kts | 285° |
| 2026-05-07 10:40 | 32.10628 | 34.27531 | 17961 ft | 368 kts | 285° |
| 2026-05-07 10:40 | 32.11288 | 34.24594 | 18577 ft | 371 kts | 285° |
| 2026-05-07 10:40 | 32.11950 | 34.21635 | 19152 ft | 375 kts | 285° |
| 2026-05-07 10:40 | 32.12614 | 34.18648 | 19761 ft | 378 kts | 285° |
| 2026-05-07 10:41 | 32.13284 | 34.15633 | 20322 ft | 381 kts | 285° |
| 2026-05-07 10:41 | 32.13958 | 34.12597 | 20866 ft | 384 kts | 285° |
| 2026-05-07 10:41 | 32.14636 | 34.09533 | 21415 ft | 387 kts | 285° |
| 2026-05-07 10:41 | 32.15319 | 34.06441 | 21936 ft | 390 kts | 285° |
| 2026-05-07 10:42 | 32.16017 | 34.03335 | 22423 ft | 393 kts | 287° |
| 2026-05-07 10:42 | 32.16958 | 34.00288 | 22902 ft | 396 kts | 294° |
| 2026-05-07 10:42 | 32.18228 | 33.97409 | 23397 ft | 398 kts | 301° |
| 2026-05-07 10:42 | 32.19706 | 33.94668 | 23855 ft | 401 kts | 303° |
| 2026-05-07 10:43 | 32.21302 | 33.91954 | 24298 ft | 404 kts | 305° |
| 2026-05-07 10:43 | 32.22938 | 33.89245 | 24738 ft | 406 kts | 305° |
| 2026-05-07 10:43 | 32.24581 | 33.86520 | 25168 ft | 409 kts | 305° |
| 2026-05-07 10:43 | 32.26236 | 33.83770 | 25573 ft | 412 kts | 304° |
| 2026-05-07 10:44 | 32.27896 | 33.81004 | 25982 ft | 414 kts | 304° |
| 2026-05-07 10:44 | 32.29566 | 33.78218 | 26393 ft | 416 kts | 304° |
| 2026-05-07 10:44 | 32.31244 | 33.75415 | 26863 ft | 416 kts | 304° |
| 2026-05-07 10:44 | 32.32910 | 33.72629 | 27415 ft | 414 kts | 304° |
| 2026-05-07 10:45 | 32.34534 | 33.69911 | 27905 ft | 413 kts | 304° |
| 2026-05-07 10:45 | 32.36228 | 33.67073 | 28367 ft | 413 kts | 304° |
| 2026-05-07 10:45 | 32.37893 | 33.64309 | 28883 ft | 411 kts | 304° |
| 2026-05-07 10:45 | 32.39553 | 33.61565 | 29403 ft | 409 kts | 304° |
| 2026-05-07 10:46 | 32.41204 | 33.58824 | 29855 ft | 409 kts | 304° |
| 2026-05-07 10:46 | 32.42850 | 33.56080 | 30299 ft | 408 kts | 304° |
| 2026-05-07 10:46 | 32.44489 | 33.53346 | 30746 ft | 407 kts | 304° |
| 2026-05-07 10:46 | 32.46122 | 33.50615 | 31203 ft | 405 kts | 304° |
| 2026-05-07 10:47 | 32.47747 | 33.47895 | 31677 ft | 403 kts | 303° |
| 2026-05-07 10:47 | 32.49365 | 33.45182 | 32031 ft | 404 kts | 303° |
| 2026-05-07 10:47 | 32.52623 | 33.39711 | 32118 ft | 406 kts | 303° |
| 2026-05-07 10:48 | 32.55859 | 33.34267 | 32122 ft | 401 kts | 303° |
| 2026-05-07 10:48 | 32.59069 | 33.28859 | 32123 ft | 400 kts | 303° |
| 2026-05-07 10:49 | 32.62267 | 33.23462 | 32124 ft | 400 kts | 303° |
| 2026-05-07 10:49 | 32.64930 | 33.18962 | 32124 ft | 400 kts | 303° |
| 2026-05-07 10:50 | 32.68123 | 33.13559 | 32125 ft | 400 kts | 303° |
| 2026-05-07 10:50 | 32.71312 | 33.08157 | 32125 ft | 399 kts | 303° |
| 2026-05-07 10:51 | 32.74494 | 33.02757 | 32125 ft | 399 kts | 303° |
| 2026-05-07 10:51 | 32.77671 | 32.97358 | 32126 ft | 399 kts | 303° |
| 2026-05-07 10:52 | 32.80848 | 32.91952 | 32136 ft | 399 kts | 303° |
| 2026-05-07 10:52 | 32.84023 | 32.86542 | 32141 ft | 398 kts | 303° |
| 2026-05-07 10:53 | 32.87186 | 32.81143 | 32141 ft | 398 kts | 303° |
| 2026-05-07 10:53 | 32.90346 | 32.75741 | 32141 ft | 398 kts | 303° |
| 2026-05-07 10:54 | 32.93502 | 32.70340 | 32142 ft | 398 kts | 303° |
| 2026-05-07 10:54 | 32.96656 | 32.64933 | 32142 ft | 397 kts | 303° |
| 2026-05-07 10:55 | 32.99785 | 32.59562 | 32142 ft | 396 kts | 303° |
| 2026-05-07 10:55 | 33.02930 | 32.54155 | 32140 ft | 396 kts | 303° |
| 2026-05-07 10:56 | 33.06067 | 32.48754 | 32142 ft | 396 kts | 303° |
| 2026-05-07 10:56 | 33.09201 | 32.43350 | 32144 ft | 396 kts | 303° |
| 2026-05-07 10:57 | 33.12327 | 32.37954 | 32144 ft | 395 kts | 303° |
| 2026-05-07 10:57 | 33.15446 | 32.32559 | 32143 ft | 395 kts | 303° |
| 2026-05-07 10:58 | 33.18567 | 32.27156 | 32142 ft | 394 kts | 303° |
| 2026-05-07 10:58 | 33.21674 | 32.21768 | 32141 ft | 394 kts | 303° |
| 2026-05-07 10:59 | 33.24780 | 32.16372 | 32142 ft | 394 kts | 303° |
| 2026-05-07 10:59 | 33.27873 | 32.10994 | 32141 ft | 393 kts | 303° |
| 2026-05-07 11:00 | 33.30986 | 32.05620 | 32142 ft | 393 kts | 303° |
| 2026-05-07 11:00 | 33.34057 | 32.00264 | 32142 ft | 393 kts | 303° |
| 2026-05-07 11:01 | 33.37135 | 31.94873 | 32142 ft | 392 kts | 303° |
| 2026-05-07 11:01 | 33.40189 | 31.89514 | 32142 ft | 391 kts | 303° |
| 2026-05-07 11:02 | 33.43273 | 31.84095 | 32142 ft | 391 kts | 303° |
| 2026-05-07 11:02 | 33.46342 | 31.78704 | 32142 ft | 391 kts | 302° |
| 2026-05-07 11:03 | 33.49407 | 31.73318 | 32141 ft | 391 kts | 303° |
| 2026-05-07 11:03 | 33.52448 | 31.67960 | 32142 ft | 391 kts | 303° |
| 2026-05-07 11:04 | 33.55505 | 31.62561 | 32140 ft | 391 kts | 303° |
| 2026-05-07 11:04 | 33.58557 | 31.57163 | 32142 ft | 391 kts | 303° |
| 2026-05-07 11:05 | 33.61607 | 31.51760 | 32142 ft | 391 kts | 302° |
| 2026-05-07 11:05 | 33.64654 | 31.46355 | 32142 ft | 391 kts | 302° |
| 2026-05-07 11:06 | 33.67722 | 31.40963 | 32142 ft | 391 kts | 303° |
| 2026-05-07 11:06 | 33.70761 | 31.35605 | 32141 ft | 391 kts | 303° |
| 2026-05-07 11:07 | 33.73817 | 31.30188 | 32141 ft | 391 kts | 303° |
| 2026-05-07 11:07 | 33.76866 | 31.24767 | 32140 ft | 391 kts | 303° |
| 2026-05-07 11:08 | 33.79933 | 31.19356 | 32141 ft | 391 kts | 303° |
| 2026-05-07 11:08 | 33.82977 | 31.13928 | 32141 ft | 391 kts | 303° |
| 2026-05-07 11:09 | 33.86015 | 31.08484 | 32142 ft | 392 kts | 302° |
| 2026-05-07 11:09 | 33.89048 | 31.03038 | 32142 ft | 392 kts | 303° |
| 2026-05-07 11:10 | 33.92082 | 30.97587 | 32142 ft | 392 kts | 303° |
| 2026-05-07 11:10 | 33.95094 | 30.92174 | 32141 ft | 392 kts | 302° |
| 2026-05-07 11:11 | 33.98120 | 30.86722 | 32142 ft | 391 kts | 303° |
| 2026-05-07 11:11 | 34.01144 | 30.81258 | 32142 ft | 390 kts | 303° |
| 2026-05-07 11:12 | 34.04142 | 30.75831 | 32141 ft | 389 kts | 303° |
| 2026-05-07 11:12 | 34.07136 | 30.70400 | 32141 ft | 389 kts | 303° |
| 2026-05-07 11:13 | 34.10133 | 30.64954 | 32142 ft | 389 kts | 302° |
| 2026-05-07 11:13 | 34.13124 | 30.59513 | 32142 ft | 389 kts | 302° |
| 2026-05-07 11:14 | 34.16136 | 30.54082 | 32142 ft | 389 kts | 303° |
| 2026-05-07 11:14 | 34.19126 | 30.48681 | 32142 ft | 390 kts | 303° |
| 2026-05-07 11:15 | 34.22127 | 30.43227 | 32141 ft | 390 kts | 303° |
| 2026-05-07 11:15 | 34.25120 | 30.37772 | 32141 ft | 389 kts | 303° |
| 2026-05-07 11:16 | 34.28117 | 30.32306 | 32141 ft | 390 kts | 303° |
| 2026-05-07 11:16 | 34.31121 | 30.26857 | 32141 ft | 389 kts | 303° |
| 2026-05-07 11:17 | 34.34108 | 30.21381 | 32141 ft | 389 kts | 302° |
| 2026-05-07 11:17 | 34.37083 | 30.15903 | 32142 ft | 389 kts | 302° |
| 2026-05-07 11:18 | 34.40053 | 30.10426 | 32142 ft | 389 kts | 302° |
| 2026-05-07 11:18 | 34.43004 | 30.04980 | 32152 ft | 389 kts | 302° |
| 2026-05-07 11:19 | 34.46138 | 29.99630 | 32154 ft | 390 kts | 310° |
| 2026-05-07 11:19 | 34.49871 | 29.94849 | 32154 ft | 390 kts | 313° |
| 2026-05-07 11:20 | 34.53676 | 29.90156 | 32149 ft | 390 kts | 313° |
| 2026-05-07 11:20 | 34.57471 | 29.85461 | 32146 ft | 390 kts | 313° |
| 2026-05-07 11:21 | 34.61257 | 29.80770 | 32145 ft | 389 kts | 313° |
| 2026-05-07 11:21 | 34.65020 | 29.76098 | 32144 ft | 389 kts | 313° |
| 2026-05-07 11:22 | 34.68803 | 29.71398 | 32145 ft | 388 kts | 313° |
| 2026-05-07 11:22 | 34.72598 | 29.66721 | 32146 ft | 388 kts | 313° |
| 2026-05-07 11:23 | 34.76117 | 29.62363 | 32147 ft | 387 kts | 313° |
| 2026-05-07 11:24 | 34.77630 | 29.60501 | 32150 ft | 387 kts | 313° |
| 2026-05-07 11:24 | 34.81401 | 29.55831 | 32151 ft | 383 kts | 313° |
| 2026-05-07 11:25 | 34.85067 | 29.51254 | 32151 ft | 372 kts | 313° |
| 2026-05-07 11:25 | 34.88664 | 29.46749 | 32074 ft | 371 kts | 313° |
| 2026-05-07 11:26 | 34.90457 | 29.44500 | 31793 ft | 367 kts | 313° |
| 2026-05-07 11:26 | 34.92226 | 29.42281 | 31466 ft | 362 kts | 313° |
| 2026-05-07 11:26 | 34.93973 | 29.40089 | 31086 ft | 360 kts | 313° |
| 2026-05-07 11:26 | 34.95712 | 29.37906 | 30710 ft | 358 kts | 313° |
| 2026-05-07 11:27 | 34.97439 | 29.35740 | 30337 ft | 355 kts | 313° |
| 2026-05-07 11:27 | 34.99173 | 29.33657 | 29972 ft | 354 kts | 317° |
| 2026-05-07 11:27 | 35.01101 | 29.31732 | 29599 ft | 353 kts | 321° |
| 2026-05-07 11:27 | 35.03055 | 29.29938 | 29226 ft | 351 kts | 322° |
| 2026-05-07 11:28 | 35.04985 | 29.28190 | 28857 ft | 349 kts | 322° |
| 2026-05-07 11:28 | 35.06923 | 29.26429 | 28485 ft | 346 kts | 322° |
| 2026-05-07 11:28 | 35.08852 | 29.24672 | 28113 ft | 344 kts | 322° |
| 2026-05-07 11:28 | 35.10766 | 29.22925 | 27744 ft | 342 kts | 322° |
| 2026-05-07 11:29 | 35.12670 | 29.21184 | 27376 ft | 340 kts | 322° |
| 2026-05-07 11:29 | 35.14559 | 29.19455 | 27010 ft | 338 kts | 322° |
| 2026-05-07 11:29 | 35.16441 | 29.17730 | 26644 ft | 336 kts | 322° |
| 2026-05-07 11:29 | 35.18308 | 29.16018 | 26281 ft | 334 kts | 322° |
| 2026-05-07 11:30 | 35.20162 | 29.14316 | 25918 ft | 332 kts | 322° |
| 2026-05-07 11:30 | 35.22001 | 29.12627 | 25557 ft | 330 kts | 322° |
| 2026-05-07 11:30 | 35.23830 | 29.10946 | 25201 ft | 328 kts | 322° |
| 2026-05-07 11:30 | 35.25653 | 29.09269 | 24843 ft | 326 kts | 322° |
| 2026-05-07 11:31 | 35.27465 | 29.07614 | 24487 ft | 324 kts | 322° |
| 2026-05-07 11:31 | 35.28668 | 29.06520 | 24250 ft | 323 kts | 322° |
| 2026-05-07 11:31 | 35.31073 | 29.04327 | 23777 ft | 321 kts | 322° |
| 2026-05-07 11:31 | 35.32851 | 29.02700 | 23425 ft | 319 kts | 322° |
| 2026-05-07 11:32 | 35.36383 | 28.99459 | 22724 ft | 315 kts | 322° |
| 2026-05-07 11:32 | 35.38134 | 28.97849 | 22376 ft | 314 kts | 322° |
| 2026-05-07 11:32 | 35.39285 | 28.96790 | 22147 ft | 312 kts | 322° |
| 2026-05-07 11:33 | 35.41017 | 28.95195 | 21804 ft | 311 kts | 322° |
| 2026-05-07 11:33 | 35.42742 | 28.93605 | 21461 ft | 309 kts | 322° |
| 2026-05-07 11:33 | 35.44457 | 28.92023 | 21122 ft | 307 kts | 322° |
| 2026-05-07 11:33 | 35.46714 | 28.89940 | 20676 ft | 305 kts | 322° |
| 2026-05-07 11:34 | 35.47855 | 28.88886 | 20450 ft | 304 kts | 322° |
| 2026-05-07 11:34 | 35.49541 | 28.87328 | 20116 ft | 302 kts | 322° |
| 2026-05-07 11:34 | 35.51205 | 28.85789 | 19786 ft | 301 kts | 322° |
| 2026-05-07 11:34 | 35.52818 | 28.84297 | 19467 ft | 299 kts | 322° |
| 2026-05-07 11:35 | 35.54458 | 28.82778 | 19144 ft | 297 kts | 322° |
| 2026-05-07 11:35 | 35.56105 | 28.81254 | 18820 ft | 296 kts | 322° |
| 2026-05-07 11:35 | 35.57745 | 28.79733 | 18495 ft | 294 kts | 322° |
| 2026-05-07 11:35 | 35.59376 | 28.78221 | 18172 ft | 293 kts | 322° |
| 2026-05-07 11:36 | 35.60997 | 28.76718 | 17850 ft | 291 kts | 322° |
| 2026-05-07 11:36 | 35.62609 | 28.75222 | 17526 ft | 290 kts | 323° |
| 2026-05-07 11:36 | 35.64214 | 28.73731 | 17202 ft | 289 kts | 323° |
| 2026-05-07 11:36 | 35.65813 | 28.72245 | 16881 ft | 287 kts | 323° |
| 2026-05-07 11:37 | 35.67402 | 28.70767 | 16563 ft | 286 kts | 323° |
| 2026-05-07 11:37 | 35.68988 | 28.69293 | 16245 ft | 285 kts | 323° |
| 2026-05-07 11:37 | 35.70562 | 28.67827 | 15931 ft | 284 kts | 323° |
| 2026-05-07 11:37 | 35.72135 | 28.66363 | 15617 ft | 282 kts | 323° |
| 2026-05-07 11:38 | 35.73695 | 28.64910 | 15304 ft | 281 kts | 323° |
| 2026-05-07 11:38 | 35.75245 | 28.63465 | 14994 ft | 280 kts | 323° |
| 2026-05-07 11:38 | 35.76802 | 28.62026 | 14682 ft | 279 kts | 323° |
| 2026-05-07 11:38 | 35.78350 | 28.60593 | 14372 ft | 277 kts | 323° |
| 2026-05-07 11:39 | 35.79868 | 28.59182 | 14068 ft | 276 kts | 323° |
| 2026-05-07 11:39 | 35.81419 | 28.57736 | 13757 ft | 275 kts | 323° |
| 2026-05-07 11:39 | 35.82943 | 28.56312 | 13451 ft | 274 kts | 323° |
| 2026-05-07 11:39 | 35.84472 | 28.54880 | 13027 ft | 278 kts | 323° |
| 2026-05-07 11:40 | 35.85984 | 28.53464 | 12705 ft | 277 kts | 323° |
| 2026-05-07 11:40 | 35.87537 | 28.52007 | 12381 ft | 276 kts | 323° |
| 2026-05-07 11:40 | 35.89066 | 28.50573 | 12067 ft | 275 kts | 323° |
| 2026-05-07 11:40 | 35.90584 | 28.49146 | 11755 ft | 275 kts | 323° |
| 2026-05-07 11:41 | 35.92105 | 28.47718 | 11443 ft | 274 kts | 323° |
| 2026-05-07 11:41 | 35.93619 | 28.46295 | 11134 ft | 273 kts | 323° |
| 2026-05-07 11:41 | 35.95126 | 28.44878 | 10826 ft | 272 kts | 323° |
| 2026-05-07 11:41 | 35.96596 | 28.43497 | 10525 ft | 271 kts | 323° |
| 2026-05-07 11:42 | 35.98073 | 28.42108 | 10224 ft | 270 kts | 323° |
| 2026-05-07 11:42 | 35.99553 | 28.40717 | 10059 ft | 263 kts | 324° |
| 2026-05-07 11:42 | 36.00999 | 28.39413 | 9956 ft | 254 kts | 329° |
| 2026-05-07 11:42 | 36.02584 | 28.38478 | 9691 ft | 254 kts | 340° |
| 2026-05-07 11:43 | 36.04279 | 28.37776 | 9408 ft | 261 kts | 343° |
| 2026-05-07 11:43 | 36.05741 | 28.37241 | 9160 ft | 266 kts | 345° |
| 2026-05-07 11:43 | 36.07550 | 28.36606 | 8851 ft | 272 kts | 345° |
| 2026-05-07 11:43 | 36.09364 | 28.35973 | 8540 ft | 272 kts | 345° |
| 2026-05-07 11:44 | 36.11125 | 28.35357 | 8239 ft | 271 kts | 345° |
| 2026-05-07 11:44 | 36.12943 | 28.34722 | 7929 ft | 271 kts | 345° |
| 2026-05-07 11:44 | 36.14751 | 28.34091 | 7619 ft | 270 kts | 345° |
| 2026-05-07 11:44 | 36.16555 | 28.33461 | 7310 ft | 269 kts | 345° |
| 2026-05-07 11:45 | 36.18359 | 28.32830 | 6999 ft | 269 kts | 345° |
| 2026-05-07 11:45 | 36.20013 | 28.32419 | 6714 ft | 267 kts | 356° |
| 2026-05-07 11:45 | 36.21832 | 28.32615 | 6409 ft | 266 kts | 12° |
| 2026-05-07 11:45 | 36.23642 | 28.33217 | 6095 ft | 266 kts | 15° |
| 2026-05-07 11:46 | 36.25427 | 28.33794 | 5780 ft | 265 kts | 14° |
| 2026-05-07 11:46 | 36.27213 | 28.34336 | 5465 ft | 264 kts | 13° |
| 2026-05-07 11:46 | 36.29005 | 28.34875 | 5147 ft | 264 kts | 13° |
| 2026-05-07 11:46 | 36.30766 | 28.35402 | 4829 ft | 264 kts | 13° |
| 2026-05-07 11:47 | 36.32534 | 28.35921 | 4506 ft | 263 kts | 13° |
| 2026-05-07 11:47 | 36.34331 | 28.36450 | 4175 ft | 263 kts | 13° |
| 2026-05-07 11:47 | 36.36095 | 28.36971 | 4041 ft | 258 kts | 13° |
| 2026-05-07 11:47 | 36.37821 | 28.37481 | 3991 ft | 249 kts | 13° |
| 2026-05-07 11:48 | 36.39463 | 28.37966 | 3977 ft | 237 kts | 13° |